메인 페이지
METAR-TAF:

METAR-TAF

공항 :

Sandnessjøen, 노르웨이

위도: 65-58N, 경도: 012-28E, 고도: 1m

현재 날씨관측

예보는 12 시간 26분 전, 15:50시(UTC)에 발표되었습니다.
북동8kt
온도 22°C
습도 69%
기압 1014 hPa
시정 10km 이상
1500m 미만 상공 구름 및 적란운 없음

METAR: ENST 201550Z 05008KT CAVOK 22/16 Q1014 RMK WIND 300FT 06009KT

시각: 06:16 (04:16 UTC)


TAF: 누락

4,000개 이상의 공항 관측 자료 및 예보 (METAR 및 TAF 보고).

지도상에서 검색 가능한 기상관측소가 노란 점과 빨간 점으로 표시되어 있습니다.

기상관측소 명을 보려면 표시 위로 마우스를 이동하세요.

날씨 관측과 예보를 보려면 클릭하세요.

지도 변경 : 확대하려면 엑스 표시가 있는 녹색 버튼, 축소하려면 빼기 표시가 있는 녹색 버튼, 다음 페이지의 지도를 보려면 녹색 화살표를 클릭하세요.


METAR-TAF: